Time;durP1;ratioP1;P1;durP2;ratioP2;P2;SDS_P1;SDS_P2;PMS_P1;PMS_P2;Temp;Humidity;BMP_temperature;BMP_pressure;BME280_temperature;BME280_humidity;BME280_pressure;Samples;Min_cycle;Max_cycle;Signal;HPM_P1;HPM_P2
2021/10/11 00:02:07;;;;;;;0.30;0.20;;;12.30;1.00;;;;;;4958771;28;20297;-67
2021/10/11 00:04:32;;;;;;;1.40;1.30;;;12.30;1.00;;;;;;4958826;28;20184;-67
2021/10/11 00:06:58;;;;;;;0.30;0.20;;;12.20;1.00;;;;;;4958646;28;20184;-67
2021/10/11 00:09:23;;;;;;;0.30;0.20;;;12.20;1.00;;;;;;4958473;28;20220;-67
2021/10/11 00:11:49;;;;;;;0.30;0.20;;;12.20;1.00;;;;;;4958525;28;20221;-67
2021/10/11 00:14:14;;;;;;;0.37;0.27;;;12.20;1.00;;;;;;4958596;28;20263;-67
2021/10/11 00:16:40;;;;;;;0.37;0.20;;;12.20;1.00;;;;;;4958498;28;20226;-67
2021/10/11 00:19:06;;;;;;;1.80;1.70;;;12.00;1.00;;;;;;4958380;28;20184;-67
2021/10/11 00:21:32;;;;;;;2.00;1.07;;;12.00;1.00;;;;;;4958291;28;20208;-67
2021/10/11 00:23:57;;;;;;;10.00;0.65;;;12.10;1.60;;;;;;4958472;28;20251;-67
2021/10/11 00:26:24;;;;;;;0.60;0.57;;;11.90;4.90;;;;;;4958372;28;20609;-67
2021/10/11 00:28:49;;;;;;;0.30;0.10;;;12.00;1.00;;;;;;4958064;28;20267;-69
2021/10/11 00:31:15;;;;;;;0.97;0.97;;;11.90;19.10;;;;;;4958164;28;20267;-69
2021/10/11 00:33:40;;;;;;;0.47;0.40;;;12.00;16.40;;;;;;4958309;28;20397;-70
2021/10/11 00:36:06;;;;;;;1.00;1.00;;;11.90;29.70;;;;;;4958146;28;20211;-70
2021/10/11 00:38:32;;;;;;;1.70;1.60;;;12.00;33.00;;;;;;4957994;28;20547;-70
2021/10/11 00:40:58;;;;;;;1.90;1.80;;;12.00;26.20;;;;;;4958228;28;20188;-69
2021/10/11 00:43:24;;;;;;;13.57;10.40;;;12.00;23.90;;;;;;4957969;28;20486;-70
2021/10/11 00:45:49;;;;;;;0.60;0.60;;;12.00;4.00;;;;;;4957918;28;20579;-70
2021/10/11 00:48:15;;;;;;;4.23;3.37;;;12.10;32.20;;;;;;4957692;28;20286;-70
2021/10/11 00:50:41;;;;;;;2.83;2.63;;;12.10;27.70;;;;;;4957905;28;20275;-70
2021/10/11 00:53:06;;;;;;;1.80;1.70;;;12.00;60.80;;;;;;4956905;28;20196;-69
2021/10/11 00:55:32;;;;;;;0.90;0.90;;;11.80;99.90;;;;;;4956910;28;20439;-69
2021/10/11 00:57:58;;;;;;;0.93;0.93;;;11.80;99.90;;;;;;4957583;28;20191;-69
2021/10/11 01:00:23;;;;;;;6.30;5.03;;;11.90;99.90;;;;;;4957672;28;20195;-71
2021/10/11 01:02:49;;;;;;;0.80;0.60;;;12.00;99.90;;;;;;4956787;28;20212;-70
2021/10/11 01:05:15;;;;;;;2.10;1.90;;;12.00;99.90;;;;;;4957486;28;20184;-69
2021/10/11 01:07:40;;;;;;;5.63;2.37;;;11.80;99.90;;;;;;4957654;28;20251;-70
2021/10/11 01:10:06;;;;;;;7.07;6.53;;;11.80;99.90;;;;;;4957393;28;20436;-69
2021/10/11 01:12:32;;;;;;;0.93;0.93;;;11.70;99.90;;;;;;4957538;28;20192;-69
2021/10/11 01:14:57;;;;;;;0.83;0.83;;;11.60;99.90;;;;;;4956541;28;20514;-69
2021/10/11 01:17:23;;;;;;;5.83;3.80;;;11.50;99.90;;;;;;4957383;28;20187;-69
2021/10/11 01:19:50;;;;;;;1.27;0.93;;;11.40;99.90;;;;;;4957059;28;20191;-69
2021/10/11 01:22:19;;;;;;;2.05;0.85;;;11.30;99.90;;;;;;4957224;28;20307;-69
2021/10/11 01:24:46;;;;;;;4.28;3.83;;;11.30;99.90;;;;;;4957261;28;20249;-69
2021/10/11 01:27:11;;;;;;;3.70;3.50;;;11.00;99.90;;;;;;4955998;28;20637;-69
2021/10/11 01:29:37;;;;;;;3.60;3.40;;;11.10;99.90;;;;;;4956984;28;20184;-70
2021/10/11 01:32:03;;;;;;;1.93;1.83;;;11.10;99.90;;;;;;4957164;28;20196;-70
2021/10/11 01:34:28;;;;;;;1.37;0.83;;;11.10;99.90;;;;;;4956974;28;20211;-69
2021/10/11 01:36:54;;;;;;;0.50;0.33;;;11.20;99.90;;;;;;4957084;28;20755;-70
2021/10/11 01:39:19;;;;;;;6.57;2.53;;;11.10;99.90;;;;;;4956918;28;20189;-70
2021/10/11 01:41:45;;;;;;;1.40;1.33;;;11.10;99.90;;;;;;4955923;29;20212;-69
2021/10/11 01:44:11;;;;;;;0.30;0.20;;;11.00;99.90;;;;;;4957322;28;20187;-69
2021/10/11 01:46:36;;;;;;;4.67;3.60;;;11.00;99.90;;;;;;4956896;28;20199;-69
2021/10/11 01:49:03;;;;;;;3.73;3.50;;;11.00;99.90;;;;;;4955689;28;20188;-67
2021/10/11 01:51:29;;;;;;;3.70;2.70;;;11.10;99.90;;;;;;4956794;28;20179;-67
2021/10/11 01:53:54;;;;;;;5.00;1.80;;;11.10;99.90;;;;;;4956731;28;20524;-66
2021/10/11 01:56:20;;;;;;;0.40;0.40;;;11.10;99.90;;;;;;4956664;28;20259;-66
2021/10/11 01:58:46;;;;;;;1.60;1.50;;;11.10;99.90;;;;;;4956369;28;20247;-69
2021/10/11 02:01:11;;;;;;;3.23;2.73;;;11.10;99.90;;;;;;4956578;28;20192;-66
2021/10/11 02:03:37;;;;;;;3.63;3.33;;;11.10;99.90;;;;;;4956290;28;20310;-66
2021/10/11 02:06:02;;;;;;;0.83;0.83;;;11.10;99.90;;;;;;4956520;28;20182;-66
2021/10/11 02:08:28;;;;;;;0.93;0.93;;;11.00;99.90;;;;;;4955230;29;20179;-66
2021/10/11 02:10:53;;;;;;;1.53;1.43;;;11.10;99.90;;;;;;4956450;28;20184;-68
2021/10/11 02:13:19;;;;;;;2.67;2.47;;;11.10;99.90;;;;;;4956384;28;20191;-67
2021/10/11 02:15:45;;;;;;;2.50;1.20;;;11.10;99.90;;;;;;4956467;28;20184;-69
2021/10/11 02:18:10;;;;;;;10.90;6.00;;;11.10;99.90;;;;;;4956028;28;20507;-69
2021/10/11 02:20:36;;;;;;;2.60;2.40;;;11.10;99.90;;;;;;4956226;28;20247;-70
2021/10/11 02:23:02;;;;;;;0.53;0.50;;;11.20;99.90;;;;;;4956142;28;20216;-69
2021/10/11 02:25:28;;;;;;;0.50;0.50;;;11.30;99.90;;;;;;4956213;28;20184;-67
2021/10/11 02:27:53;;;;;;;2.60;2.13;;;11.20;99.90;;;;;;4955907;28;20214;-69
2021/10/11 02:30:19;;;;;;;5.47;4.07;;;11.10;99.90;;;;;;4956070;28;20176;-68
2021/10/11 02:32:46;;;;;;;1.25;1.15;;;11.10;99.90;;;;;;4955928;28;20601;-68
2021/10/11 02:35:13;;;;;;;5.10;4.80;;;11.10;99.90;;;;;;4956022;28;20216;-68
2021/10/11 02:37:38;;;;;;;3.53;2.95;;;11.00;99.90;;;;;;4955938;28;20203;-69
2021/10/11 02:40:05;;;;;;;6.53;4.57;;;11.00;99.90;;;;;;4955777;28;20637;-69
2021/10/11 02:42:30;;;;;;;1.65;1.40;;;11.00;99.90;;;;;;4955765;28;20207;-66
2021/10/11 02:44:56;;;;;;;3.17;3.07;;;11.10;99.90;;;;;;4955846;28;20276;-66
2021/10/11 02:47:22;;;;;;;2.83;2.63;;;11.10;99.90;;;;;;4955850;28;20208;-67
2021/10/11 02:49:47;;;;;;;3.10;3.00;;;11.10;99.90;;;;;;4955682;28;20179;-67
2021/10/11 02:52:13;;;;;;;1.13;1.13;;;11.10;99.90;;;;;;4955790;28;20188;-66
2021/10/11 02:54:38;;;;;;;4.63;3.20;;;11.20;99.90;;;;;;4955812;28;20259;-66
2021/10/11 02:57:05;;;;;;;1.07;0.97;;;11.20;99.90;;;;;;4955688;28;20653;-67
2021/10/11 02:59:31;;;;;;;0.30;0.30;;;11.30;99.90;;;;;;4955440;28;20184;-66
2021/10/11 03:01:56;;;;;;;0.50;0.50;;;11.20;99.90;;;;;;4955591;28;20739;-66
2021/10/11 03:04:22;;;;;;;1.80;1.70;;;11.30;99.90;;;;;;4955652;28;20572;-68
2021/10/11 03:06:48;;;;;;;0.30;0.20;;;11.20;99.90;;;;;;4955621;28;20176;-68
2021/10/11 03:09:13;;;;;;;1.87;1.77;;;11.30;99.90;;;;;;4955382;28;20259;-68
2021/10/11 03:11:39;;;;;;;0.30;0.20;;;11.40;99.90;;;;;;4955444;28;20176;-68
2021/10/11 03:14:04;;;;;;;0.30;0.20;;;11.40;99.90;;;;;;4955569;28;20220;-67
2021/10/11 03:16:30;;;;;;;0.83;0.83;;;11.40;99.90;;;;;;4955336;28;20234;-67
2021/10/11 03:18:55;;;;;;;2.70;2.00;;;11.20;99.90;;;;;;4955271;28;20172;-66
2021/10/11 03:21:21;;;;;;;1.10;0.83;;;11.10;99.90;;;;;;4955447;28;20187;-70
2021/10/11 03:23:49;;;;;;;1.80;1.47;;;11.20;99.90;;;;;;4955343;28;20212;-70
2021/10/11 03:26:15;;;;;;;0.85;0.50;;;11.20;99.90;;;;;;4958090;28;20445;-70
2021/10/11 03:28:41;;;;;;;0.30;0.20;;;11.20;99.90;;;;;;4957994;28;20205;-70
2021/10/11 03:31:07;;;;;;;0.30;0.20;;;11.10;99.90;;;;;;4959173;28;20267;-70
2021/10/11 03:33:35;;;;;;;0.30;0.20;;;11.10;99.90;;;;;;4959295;28;20180;-70
2021/10/11 03:36:01;;;;;;;0.30;0.20;;;11.10;99.90;;;;;;4959356;28;20183;-70
2021/10/11 03:38:26;;;;;;;0.20;0.20;;;11.20;99.90;;;;;;4958964;28;20184;-70
2021/10/11 03:40:52;;;;;;;0.30;0.20;;;11.20;99.90;;;;;;4958981;28;20553;-70
2021/10/11 03:43:18;;;;;;;0.30;0.17;;;11.20;99.90;;;;;;4957847;28;20211;-70
2021/10/11 03:45:43;;;;;;;0.30;0.30;;;11.30;99.90;;;;;;4958904;28;20243;-70
2021/10/11 03:48:09;;;;;;;0.30;0.10;;;11.20;99.90;;;;;;4958723;28;20183;-70
2021/10/11 03:50:34;;;;;;;0.40;0.40;;;11.30;99.90;;;;;;4958934;28;20505;-70
2021/10/11 03:53:00;;;;;;;0.23;0.13;;;11.40;99.90;;;;;;4958828;28;20199;-70
2021/10/11 03:55:25;;;;;;;0.40;0.40;;;11.40;99.90;;;;;;4958740;28;20180;-71
2021/10/11 03:57:51;;;;;;;1.07;0.97;;;11.20;99.90;;;;;;4958784;28;20637;-70
2021/10/11 04:00:16;;;;;;;0.30;0.20;;;11.20;99.90;;;;;;4958560;28;20188;-70
2021/10/11 04:02:42;;;;;;;0.30;0.20;;;11.10;99.90;;;;;;4958329;28;20212;-70
2021/10/11 04:05:08;;;;;;;0.30;0.20;;;11.20;99.90;;;;;;4958729;28;20202;-70
2021/10/11 04:07:34;;;;;;;0.63;0.63;;;11.30;99.90;;;;;;4958731;28;20186;-69
2021/10/11 04:10:04;;;;;;;0.30;0.20;;;11.40;99.90;;;;;;4958566;28;20226;-68
2021/10/11 04:12:36;;;;;;;0.30;0.20;;;11.50;99.90;;;;;;4958656;28;20243;-68
2021/10/11 04:15:04;;;;;;;0.30;0.20;;;11.40;99.90;;;;;;4958458;28;20509;-68
2021/10/11 04:17:30;;;;;;;0.30;0.20;;;11.50;99.90;;;;;;4958869;28;20188;-68
2021/10/11 04:19:56;;;;;;;0.30;0.10;;;11.60;99.90;;;;;;4959016;28;20198;-68
2021/10/11 04:22:22;;;;;;;0.30;0.20;;;11.40;99.90;;;;;;4959501;28;20210;-69
2021/10/11 04:24:47;;;;;;;2.63;0.37;;;11.40;99.90;;;;;;4959410;28;20514;-68
2021/10/11 04:27:13;;;;;;;0.53;0.53;;;11.30;99.90;;;;;;4957526;28;20509;-69
2021/10/11 04:29:39;;;;;;;0.30;0.20;;;11.50;99.90;;;;;;4958210;28;20195;-68
2021/10/11 04:32:05;;;;;;;0.30;0.20;;;11.40;99.90;;;;;;4958179;28;20175;-68
2021/10/11 04:34:31;;;;;;;0.30;0.20;;;11.50;99.90;;;;;;4958115;28;20185;-69
2021/10/11 04:36:57;;;;;;;0.60;0.60;;;11.40;99.90;;;;;;4957058;28;20188;-69
2021/10/11 04:39:22;;;;;;;2.10;1.33;;;11.60;99.90;;;;;;4957058;28;20431;-69
2021/10/11 04:41:48;;;;;;;0.87;0.87;;;11.50;99.90;;;;;;4958375;28;20200;-68
2021/10/11 04:44:14;;;;;;;1.63;1.53;;;11.60;99.90;;;;;;4957830;28;20184;-69
2021/10/11 04:46:40;;;;;;;2.05;1.38;;;11.50;99.90;;;;;;4957021;28;20191;-69
2021/10/11 04:49:05;;;;;;;4.23;2.13;;;11.40;99.90;;;;;;4957818;28;20172;-70
2021/10/11 04:51:31;;;;;;;0.43;0.40;;;11.40;99.90;;;;;;4958022;28;20259;-70
2021/10/11 04:53:56;;;;;;;1.23;1.23;;;11.30;99.90;;;;;;4957902;28;20488;-69
2021/10/11 04:56:22;;;;;;;0.93;0.90;;;11.30;99.90;;;;;;4957750;28;20200;-69
2021/10/11 04:58:47;;;;;;;0.40;0.30;;;11.30;99.90;;;;;;4957636;28;20638;-69
2021/10/11 05:01:13;;;;;;;0.93;0.93;;;11.20;99.90;;;;;;4957608;28;20210;-70
2021/10/11 05:03:38;;;;;;;0.30;0.20;;;11.30;99.90;;;;;;4957634;28;20299;-66
2021/10/11 05:06:04;;;;;;;0.30;0.20;;;11.30;99.90;;;;;;4957962;28;20515;-66
2021/10/11 05:08:30;;;;;;;0.30;0.20;;;11.40;99.90;;;;;;4957285;28;20195;-67
2021/10/11 05:10:56;;;;;;;0.30;0.20;;;11.60;99.90;;;;;;4957633;28;20184;-67
2021/10/11 05:13:22;;;;;;;0.50;0.40;;;11.70;99.90;;;;;;4957396;28;20524;-67
2021/10/11 05:15:47;;;;;;;3.50;2.53;;;11.60;99.90;;;;;;4957518;28;20622;-67
2021/10/11 05:18:13;;;;;;;0.30;0.20;;;11.60;99.90;;;;;;4956183;28;20183;-67
2021/10/11 05:20:44;;;;;;;0.30;0.20;;;11.80;99.90;;;;;;4957404;28;20512;-67
2021/10/11 05:23:10;;;;;;;0.30;0.20;;;11.90;99.90;;;;;;4957280;28;20542;-69
2021/10/11 05:25:36;;;;;;;0.30;0.20;;;12.00;99.90;;;;;;4957172;28;20176;-70
2021/10/11 05:28:01;;;;;;;0.90;0.90;;;11.90;99.90;;;;;;4955758;28;20294;-69
2021/10/11 05:30:27;;;;;;;0.67;0.67;;;12.00;99.90;;;;;;4957204;28;20180;-68
2021/10/11 05:32:52;;;;;;;0.30;0.17;;;12.10;99.90;;;;;;4957160;28;20656;-69
2021/10/11 05:35:18;;;;;;;0.30;0.20;;;12.00;99.90;;;;;;4957079;28;20239;-68
2021/10/11 05:37:44;;;;;;;0.30;0.20;;;12.00;99.90;;;;;;4957215;28;20192;-69
2021/10/11 05:40:09;;;;;;;0.30;0.13;;;12.00;99.90;;;;;;4956834;28;20275;-69
2021/10/11 05:42:35;;;;;;;0.30;0.10;;;11.80;99.90;;;;;;4956675;28;20207;-69
2021/10/11 05:45:01;;;;;;;0.30;0.10;;;11.60;99.90;;;;;;4957047;28;20207;-69
2021/10/11 05:47:26;;;;;;;0.30;0.10;;;11.70;99.90;;;;;;4955650;28;20227;-69
2021/10/11 05:49:52;;;;;;;0.30;0.20;;;11.60;99.90;;;;;;4956553;28;20647;-69
2021/10/11 05:52:18;;;;;;;0.73;0.73;;;11.50;99.90;;;;;;4956905;28;20215;-67
2021/10/11 05:54:43;;;;;;;0.30;0.10;;;11.50;99.90;;;;;;4956467;28;20184;-67
2021/10/11 05:57:09;;;;;;;0.30;0.17;;;11.50;99.90;;;;;;4956462;28;20200;-67
2021/10/11 05:59:34;;;;;;;0.30;0.20;;;11.50;99.90;;;;;;4956219;28;20184;-67
2021/10/11 06:02:00;;;;;;;0.30;0.30;;;11.50;99.90;;;;;;4955001;28;20223;-67
2021/10/11 06:04:26;;;;;;;0.30;0.20;;;11.40;99.90;;;;;;4956592;28;20181;-67
2021/10/11 06:06:51;;;;;;;0.30;0.20;;;11.30;99.90;;;;;;4956482;28;20176;-67
2021/10/11 06:09:18;;;;;;;0.30;0.30;;;11.10;99.90;;;;;;4956325;28;20758;-67
2021/10/11 06:11:47;;;;;;;0.57;0.57;;;11.10;99.90;;;;;;4955299;28;20181;-67
2021/10/11 06:14:13;;;;;;;1.30;1.20;;;11.10;99.90;;;;;;4956368;28;20288;-66
2021/10/11 06:16:38;;;;;;;0.30;0.30;;;11.10;99.90;;;;;;4955027;28;20176;-66
2021/10/11 06:19:04;;;;;;;0.27;0.13;;;11.10;99.90;;;;;;4956033;28;20199;-66
2021/10/11 06:21:30;;;;;;;0.30;0.10;;;11.10;99.90;;;;;;4956341;28;20180;-66
2021/10/11 06:23:57;;;;;;;0.30;0.20;;;11.10;99.90;;;;;;4956199;28;20279;-70
2021/10/11 06:26:23;;;;;;;1.35;1.25;;;11.10;99.90;;;;;;4956204;28;20179;-70
2021/10/11 06:28:48;;;;;;;1.53;1.43;;;11.20;99.90;;;;;;4955728;28;20211;-70
2021/10/11 06:31:14;;;;;;;0.87;0.87;;;11.30;99.90;;;;;;4956068;28;20184;-70
2021/10/11 06:33:40;;;;;;;0.30;0.20;;;11.40;99.90;;;;;;4955905;28;20192;-70
2021/10/11 06:36:05;;;;;;;1.58;1.13;;;11.50;99.90;;;;;;4956208;28;20188;-71
2021/10/11 06:38:32;;;;;;;1.43;1.33;;;11.60;99.90;;;;;;4955830;28;20194;-70
2021/10/11 06:40:57;;;;;;;1.33;1.33;;;11.50;99.90;;;;;;4956193;28;20214;-66
2021/10/11 06:43:23;;;;;;;0.30;0.20;;;11.40;99.90;;;;;;4955871;28;20240;-66
2021/10/11 06:45:48;;;;;;;1.30;0.83;;;11.40;99.90;;;;;;4956031;28;20173;-66
2021/10/11 06:48:17;;;;;;;2.20;0.80;;;11.30;99.90;;;;;;4955661;28;20177;-67
2021/10/11 06:50:44;;;;;;;1.02;0.93;;;11.40;99.90;;;;;;4955521;28;20172;-68
2021/10/11 06:53:09;;;;;;;0.32;0.30;;;11.50;99.90;;;;;;4955715;28;20196;-66
2021/10/11 06:55:35;;;;;;;0.30;0.20;;;11.50;99.90;;;;;;4955618;28;20295;-66
2021/10/11 06:58:00;;;;;;;0.33;0.33;;;11.70;99.90;;;;;;4955516;28;20526;-66
2021/10/11 07:00:26;;;;;;;0.70;0.70;;;11.70;99.90;;;;;;4954443;28;20539;-66
2021/10/11 07:02:51;;;;;;;0.40;0.20;;;11.60;99.90;;;;;;4955597;28;20294;-66
2021/10/11 07:05:17;;;;;;;3.40;1.80;;;11.70;99.90;;;;;;4955684;28;20195;-66
2021/10/11 07:07:44;;;;;;;0.50;0.50;;;11.90;99.90;;;;;;4955490;28;20177;-67
2021/10/11 07:10:10;;;;;;;0.30;0.20;;;11.80;99.90;;;;;;4955233;28;20192;-66
2021/10/11 07:12:36;;;;;;;0.93;0.73;;;11.90;99.90;;;;;;4955930;28;20251;-66
2021/10/11 07:15:03;;;;;;;0.73;0.73;;;11.90;99.90;;;;;;4955644;28;20275;-66
2021/10/11 07:17:28;;;;;;;0.40;0.20;;;11.90;99.90;;;;;;4955278;28;20267;-66
2021/10/11 07:19:54;;;;;;;4.57;1.17;;;11.90;99.90;;;;;;4954884;28;20661;-66
2021/10/11 07:22:20;;;;;;;0.30;0.20;;;12.00;99.90;;;;;;4955125;28;20263;-66
2021/10/11 07:24:46;;;;;;;0.30;0.20;;;12.00;99.90;;;;;;4955323;28;20634;-67
2021/10/11 07:27:12;;;;;;;0.30;0.20;;;12.10;99.90;;;;;;4955120;28;20173;-67
2021/10/11 07:29:38;;;;;;;0.30;0.20;;;12.20;99.90;;;;;;4954709;28;20681;-67
2021/10/11 07:32:05;;;;;;;0.30;0.20;;;12.30;99.90;;;;;;4955063;28;20621;-67
2021/10/11 07:34:31;;;;;;;0.30;0.20;;;12.40;99.90;;;;;;4955204;28;20443;-64
2021/10/11 07:36:57;;;;;;;0.30;0.20;;;12.50;99.90;;;;;;4955147;28;20184;-64
2021/10/11 07:39:23;;;;;;;0.40;0.20;;;12.40;99.90;;;;;;4954714;28;20188;-64
2021/10/11 07:41:48;;;;;;;0.30;0.20;;;12.30;99.90;;;;;;4954505;28;20192;-64
2021/10/11 07:44:14;;;;;;;0.60;0.40;;;12.40;99.90;;;;;;4954496;28;20191;-65
2021/10/11 07:46:40;;;;;;;0.40;0.40;;;12.40;99.90;;;;;;4954996;28;20266;-64
2021/10/11 07:49:07;;;;;;;0.30;0.20;;;12.50;99.90;;;;;;4954565;28;20195;-65
2021/10/11 07:51:33;;;;;;;2.38;2.17;;;12.60;99.90;;;;;;4954981;28;20176;-65
2021/10/11 07:53:59;;;;;;;1.23;1.15;;;12.70;99.90;;;;;;4954304;28;20180;-65
2021/10/11 07:56:24;;;;;;;0.40;0.30;;;12.80;99.90;;;;;;4955282;28;20247;-64
2021/10/11 07:58:50;;;;;;;0.30;0.20;;;12.80;99.90;;;;;;4955201;28;20188;-68
2021/10/11 08:01:15;;;;;;;0.30;0.20;;;12.90;99.90;;;;;;4955281;28;20180;-67
2021/10/11 08:03:41;;;;;;;0.30;0.20;;;13.10;99.90;;;;;;4955524;28;20684;-67
2021/10/11 08:06:07;;;;;;;0.30;0.20;;;13.30;99.90;;;;;;4955457;28;20637;-68
2021/10/11 08:08:35;;;;;;;0.30;0.20;;;13.60;99.90;;;;;;4955390;28;20215;-65
2021/10/11 08:11:01;;;;;;;0.73;0.73;;;13.60;99.90;;;;;;4956047;28;20737;-66
2021/10/11 08:13:27;;;;;;;0.40;0.28;;;13.60;99.90;;;;;;4959732;28;20195;-69
2021/10/11 08:15:53;;;;;;;1.30;1.20;;;13.50;99.90;;;;;;4958842;28;20185;-67
2021/10/11 08:18:19;;;;;;;0.35;0.32;;;13.40;99.90;;;;;;4958362;28;20191;-66
2021/10/11 08:20:46;;;;;;;0.50;0.50;;;13.40;99.90;;;;;;4958561;28;20184;-66
2021/10/11 08:23:12;;;;;;;0.95;0.95;;;13.60;99.90;;;;;;4958713;28;20203;-66
2021/10/11 08:25:37;;;;;;;6.22;2.08;;;13.90;99.90;;;;;;4958636;28;20184;-66
2021/10/11 08:28:03;;;;;;;0.70;0.67;;;13.80;99.90;;;;;;4958197;28;20664;-66
2021/10/11 08:30:29;;;;;;;0.33;0.30;;;13.90;99.90;;;;;;4958449;28;20214;-66
2021/10/11 08:32:55;;;;;;;0.30;0.20;;;14.10;99.90;;;;;;4958523;28;20439;-66
2021/10/11 08:35:21;;;;;;;0.60;0.60;;;14.20;99.90;;;;;;4958322;28;20273;-66
2021/10/11 08:37:46;;;;;;;0.90;0.90;;;14.00;99.90;;;;;;4958373;28;20195;-66
2021/10/11 08:40:13;;;;;;;0.40;0.20;;;14.00;99.90;;;;;;4957230;28;20578;-66
2021/10/11 08:42:40;;;;;;;0.30;0.20;;;13.90;99.90;;;;;;4958173;28;20275;-66
2021/10/11 08:45:07;;;;;;;0.82;0.55;;;14.10;99.90;;;;;;4958068;28;20188;-66
2021/10/11 08:47:33;;;;;;;0.30;0.10;;;14.40;86.40;;;;;;4958214;28;20184;-66
2021/10/11 08:49:58;;;;;;;0.30;0.20;;;14.50;1.00;;;;;;4957783;28;20550;-66
2021/10/11 08:52:24;;;;;;;1.63;1.07;;;14.80;21.40;;;;;;4957825;28;20211;-66
2021/10/11 08:54:51;;;;;;;0.40;0.20;;;15.20;1.00;;;;;;4958280;28;20247;-66
2021/10/11 08:57:35;;;;;;;0.80;0.73;;;15.30;1.00;;;;;;4959527;28;20613;-66
2021/10/11 09:00:08;;;;;;;1.63;1.52;;;15.40;1.00;;;;;;4959015;29;20243;-67
2021/10/11 09:02:34;;;;;;;0.40;0.10;;;15.50;1.00;;;;;;4958449;28;20266;-67
2021/10/11 09:04:59;;;;;;;0.70;0.40;;;15.50;1.00;;;;;;4958482;28;20176;-67
2021/10/11 09:07:28;;;;;;;1.60;1.50;;;15.50;1.00;;;;;;4957768;28;20184;-67
2021/10/11 09:09:55;;;;;;;0.70;0.60;;;15.70;1.00;;;;;;4957724;28;20191;-69
2021/10/11 09:12:30;;;;;;;1.08;0.98;;;15.40;1.00;;;;;;4957672;28;20622;-67
2021/10/11 09:15:11;;;;;;;1.25;0.70;;;15.10;1.00;;;;;;4957457;28;20191;-64
2021/10/11 09:17:42;;;;;;;0.40;0.20;;;14.90;1.00;;;;;;4957317;28;20271;-65
2021/10/11 09:20:18;;;;;;;0.40;0.20;;;14.80;1.00;;;;;;4957239;28;20188;-65
2021/10/11 09:22:46;;;;;;;0.40;0.20;;;14.70;18.30;;;;;;4956668;28;20291;-65
2021/10/11 09:25:14;;;;;;;0.40;0.30;;;14.90;3.20;;;;;;4957011;28;20223;-64
2021/10/11 09:27:45;;;;;;;0.57;0.52;;;14.90;1.00;;;;;;4956843;28;20295;-64
2021/10/11 09:30:12;;;;;;;0.40;0.40;;;14.90;1.00;;;;;;4956975;28;20208;-64
2021/10/11 09:32:38;;;;;;;0.40;0.20;;;14.80;23.70;;;;;;4956966;28;20460;-65
2021/10/11 09:35:13;;;;;;;0.30;0.10;;;14.70;21.70;;;;;;4956018;28;20203;-65
2021/10/11 09:37:39;;;;;;;0.40;0.20;;;14.90;34.30;;;;;;4956935;28;20939;-64
2021/10/11 09:40:09;;;;;;;0.40;0.20;;;15.10;1.00;;;;;;4956856;28;20644;-67
2021/10/11 09:42:35;;;;;;;0.40;0.20;;;15.00;1.00;;;;;;4956963;28;20512;-67
2021/10/11 09:45:03;;;;;;;0.40;0.10;;;15.10;1.00;;;;;;4957035;28;20519;-67
2021/10/11 09:47:35;;;;;;;0.40;0.20;;;15.00;1.00;;;;;;4956882;28;20423;-67
2021/10/11 09:50:04;;;;;;;0.40;0.20;;;15.10;1.00;;;;;;4956605;28;20283;-67
2021/10/11 09:52:31;;;;;;;0.77;0.65;;;15.00;1.00;;;;;;4956447;28;20543;-67
2021/10/11 09:54:57;;;;;;;0.40;0.10;;;15.20;1.00;;;;;;4956851;28;20262;-67
2021/10/11 09:57:23;;;;;;;0.40;0.20;;;15.20;1.00;;;;;;4956768;28;20172;-67
2021/10/11 09:59:49;;;;;;;0.37;0.23;;;15.00;1.00;;;;;;4956354;28;20190;-67
2021/10/11 10:02:17;;;;;;;0.40;0.20;;;15.20;1.00;;;;;;4956442;28;20235;-67
2021/10/11 10:04:44;;;;;;;0.60;0.40;;;15.20;1.00;;;;;;4956402;28;20188;-67
2021/10/11 10:07:13;;;;;;;0.50;0.30;;;15.10;99.90;;;;;;4955243;28;20616;-67
2021/10/11 10:09:48;;;;;;;0.40;0.20;;;15.00;99.90;;;;;;4955884;28;20212;-67
2021/10/11 10:12:14;;;;;;;0.40;0.20;;;15.20;99.90;;;;;;4957196;28;20199;-67
2021/10/11 10:14:39;;;;;;;1.10;0.67;;;15.40;99.90;;;;;;4955756;28;20184;-68
2021/10/11 10:17:05;;;;;;;0.40;0.23;;;15.30;99.90;;;;;;4956052;28;20688;-69
2021/10/11 10:19:39;;;;;;;0.70;0.30;;;15.40;1.00;;;;;;4956033;28;20184;-68
2021/10/11 10:22:15;;;;;;;0.40;0.20;;;15.70;1.00;;;;;;4956220;28;20225;-67
2021/10/11 10:24:42;;;;;;;0.80;0.25;;;16.30;1.00;;;;;;4956314;28;20247;-68
2021/10/11 10:27:10;;;;;;;1.30;0.50;;;16.40;1.00;;;;;;4956045;28;20231;-67
2021/10/11 10:29:48;;;;;;;0.47;0.25;;;16.00;1.00;;;;;;4956069;28;20177;-67
2021/10/11 10:32:18;;;;;;;0.40;0.10;;;15.80;99.90;;;;;;4955877;28;20246;-65
2021/10/11 10:34:59;;;;;;;2.58;2.47;;;15.70;99.90;;;;;;4955099;28;20503;-68
2021/10/11 10:37:35;;;;;;;1.83;0.50;;;15.60;1.00;;;;;;4956221;28;20491;-68
2021/10/11 10:40:08;;;;;;;0.52;0.20;;;15.60;99.90;;;;;;4956148;28;20664;-67
2021/10/11 10:42:34;;;;;;;0.40;0.20;;;15.80;1.00;;;;;;4954974;28;20212;-67
2021/10/11 10:45:01;;;;;;;0.40;0.20;;;15.90;20.90;;;;;;4955793;28;20583;-65
2021/10/11 10:47:38;;;;;;;0.40;0.20;;;16.40;94.50;;;;;;4955857;28;20204;-67
2021/10/11 10:50:14;;;;;;;0.95;0.82;;;16.60;99.90;;;;;;4954558;28;20207;-69
2021/10/11 10:52:39;;;;;;;0.40;0.20;;;16.50;1.00;;;;;;4955875;28;20191;-65
2021/10/11 10:55:05;;;;;;;0.40;0.20;;;16.70;1.00;;;;;;4938269;29;20196;-68
2021/10/11 10:57:32;;;;;;;0.40;0.20;;;16.70;99.90;;;;;;4954512;28;20217;-67
2021/10/11 11:00:04;;;;;;;0.40;0.20;;;16.60;1.00;;;;;;4954552;28;20207;-66
2021/10/11 11:02:31;;;;;;;0.40;0.17;;;16.70;1.00;;;;;;4955402;28;20224;-65
2021/10/11 11:05:03;;;;;;;0.40;0.20;;;16.60;99.90;;;;;;4954698;28;20424;-68
2021/10/11 11:07:33;;;;;;;0.40;0.20;;;16.70;1.00;;;;;;4955677;28;20438;-69
2021/10/11 11:10:02;;;;;;;1.07;0.30;;;17.00;1.00;;;;;;4955440;28;20424;-65
2021/10/11 11:12:33;;;;;;;0.40;0.10;;;16.90;1.00;;;;;;4955521;28;20438;-65
2021/10/11 11:15:00;;;;;;;19.27;1.60;;;17.00;1.00;;;;;;4955833;28;20908;-69
2021/10/11 11:17:33;;;;;;;0.50;0.40;;;17.20;99.90;;;;;;4955335;28;20514;-65
2021/10/11 11:19:59;;;;;;;0.60;0.43;;;16.60;1.00;;;;;;4955325;28;20920;-69
2021/10/11 11:22:33;;;;;;;0.80;0.43;;;16.10;1.00;;;;;;4955654;28;20473;-69
2021/10/11 11:25:04;;;;;;;0.40;0.20;;;16.10;1.00;;;;;;4955275;28;20874;-65
2021/10/11 11:27:34;;;;;;;0.50;0.30;;;15.70;1.00;;;;;;4954286;28;20250;-66
2021/10/11 11:30:15;;;;;;;0.50;0.40;;;15.50;99.90;;;;;;4955477;28;20211;-67
2021/10/11 11:32:48;;;;;;;0.40;0.20;;;15.70;99.90;;;;;;4955474;28;20180;-65
2021/10/11 11:35:26;;;;;;;0.40;0.10;;;15.70;99.90;;;;;;4955401;28;20191;-65
2021/10/11 11:37:55;;;;;;;0.40;0.20;;;15.50;99.90;;;;;;4955071;28;20535;-66
2021/10/11 11:40:28;;;;;;;5.10;0.80;;;14.80;1.00;;;;;;4955193;28;20176;-65
2021/10/11 11:42:55;;;;;;;0.40;0.20;;;14.70;33.10;;;;;;4955112;28;20212;-67
2021/10/11 11:45:34;;;;;;;0.40;0.20;;;14.80;99.90;;;;;;4955167;28;20267;-67
2021/10/11 11:48:26;;;;;;;0.80;0.43;;;14.70;99.90;;;;;;4958759;28;20259;-68
2021/10/11 11:50:55;;;;;;;0.40;0.20;;;14.50;89.60;;;;;;4959072;28;20184;-68
2021/10/11 11:53:24;;;;;;;0.40;0.20;;;14.50;99.90;;;;;;4959069;28;20250;-67
2021/10/11 11:55:51;;;;;;;0.40;0.20;;;14.30;79.80;;;;;;4958880;28;20184;-67
2021/10/11 11:58:35;;;;;;;0.40;0.20;;;14.40;99.90;;;;;;4958745;28;20605;-64
2021/10/11 12:01:08;;;;;;;0.50;0.40;;;14.60;47.20;;;;;;4959102;28;20195;-65
2021/10/11 12:03:37;;;;;;;0.40;0.20;;;14.90;1.00;;;;;;4958996;28;20286;-65
2021/10/11 12:06:04;;;;;;;0.40;0.20;;;15.20;1.00;;;;;;4958744;28;20185;-64
2021/10/11 12:08:30;;;;;;;6.28;0.73;;;15.30;1.00;;;;;;4958358;28;20195;-64
2021/10/11 12:10:57;;;;;;;0.63;0.20;;;15.40;99.90;;;;;;4958748;28;20181;-68
2021/10/11 12:13:24;;;;;;;0.40;0.17;;;15.50;99.90;;;;;;4958676;28;20206;-68
2021/10/11 12:16:01;;;;;;;0.40;0.20;;;15.60;99.90;;;;;;4958401;28;20184;-68
2021/10/11 12:18:41;;;;;;;0.40;0.20;;;15.60;99.90;;;;;;4958419;28;20191;-68
2021/10/11 12:21:22;;;;;;;0.60;0.40;;;15.60;99.90;;;;;;4957564;28;20184;-68
2021/10/11 12:23:48;;;;;;;0.68;0.65;;;15.70;99.90;;;;;;4957836;28;20235;-68
2021/10/11 12:26:14;;;;;;;0.40;0.20;;;15.50;1.00;;;;;;4958303;28;20196;-69
2021/10/11 12:28:55;;;;;;;0.60;0.40;;;15.60;1.00;;;;;;4957944;28;20211;-65
2021/10/11 12:31:30;;;;;;;0.40;0.20;;;16.00;99.90;;;;;;4957333;28;20180;-65
2021/10/11 12:34:13;;;;;;;0.88;0.30;;;16.30;1.00;;;;;;4958211;28;20203;-65
2021/10/11 12:36:50;;;;;;;0.95;0.40;;;16.50;1.00;;;;;;4958119;28;20294;-65
2021/10/11 12:39:18;;;;;;;4.20;2.05;;;16.40;1.00;;;;;;4958767;28;20191;-66
2021/10/11 12:41:50;;;;;;;0.40;0.20;;;15.00;83.30;;;;;;4956826;28;20188;-66
2021/10/11 12:44:24;;;;;;;1.55;0.20;;;13.70;99.90;;;;;;4956180;28;20191;-66
2021/10/11 12:46:50;;;;;;;0.40;0.20;;;13.30;99.90;;;;;;4958274;28;20182;-66
2021/10/11 12:49:17;;;;;;;0.87;0.27;;;13.10;99.90;;;;;;4958420;29;20258;-66